createdAt,value
2018-09-18T00:00:56.665Z,53.24
2018-09-18T00:04:00.309Z,55.34
2018-09-18T00:07:03.980Z,53.46
2018-09-18T00:10:07.915Z,54.16
2018-09-18T00:13:11.701Z,54.41
2018-09-18T00:16:15.259Z,55.84
2018-09-18T00:19:18.999Z,54.85
2018-09-18T00:22:22.757Z,52.47
2018-09-18T00:25:26.434Z,53.18
2018-09-18T00:28:30.074Z,54.62
2018-09-18T00:31:33.681Z,52.44
2018-09-18T00:34:37.486Z,51.72
2018-09-18T00:37:41.186Z,52.26
2018-09-18T00:40:44.855Z,53.12
2018-09-18T00:43:48.492Z,53.10
2018-09-18T00:46:52.227Z,50.61
2018-09-18T00:49:55.791Z,51.81
2018-09-18T00:52:59.434Z,52.93
2018-09-18T00:56:03.102Z,52.12
2018-09-18T00:59:06.729Z,51.36
2018-09-18T01:02:10.290Z,51.61
2018-09-18T01:05:13.991Z,51.50
2018-09-18T01:08:17.664Z,52.78
2018-09-18T01:11:21.329Z,52.19
2018-09-18T01:14:25.072Z,50.82
2018-09-18T01:17:28.739Z,50.87
2018-09-18T01:20:32.320Z,51.91
2018-09-18T01:23:35.965Z,50.67
2018-09-18T01:26:39.707Z,49.93
2018-09-18T01:29:43.695Z,50.37
2018-09-18T01:32:47.310Z,49.43
2018-09-18T01:35:50.953Z,50.47
2018-09-18T01:38:54.554Z,50.99
2018-09-18T01:41:58.121Z,50.51
2018-09-18T01:45:01.826Z,50.32
2018-09-18T01:48:05.496Z,51.79
2018-09-18T01:51:09.200Z,50.91
2018-09-18T01:54:12.879Z,51.90
2018-09-18T01:57:16.555Z,51.84
2018-09-18T02:00:20.246Z,51.89
2018-09-18T02:03:23.834Z,51.79
2018-09-18T02:06:27.481Z,52.34
2018-09-18T02:09:31.024Z,51.90
2018-09-18T02:12:34.676Z,51.46
2018-09-18T02:15:38.244Z,51.55
2018-09-18T02:18:41.894Z,52.33
2018-09-18T02:21:45.620Z,51.39
2018-09-18T02:24:49.282Z,52.24
2018-09-18T02:27:53.054Z,51.32
2018-09-18T02:30:56.712Z,52.62
2018-09-18T02:34:00.409Z,53.45
2018-09-18T02:37:04.200Z,52.90
2018-09-18T02:40:08.093Z,52.31
2018-09-18T02:43:11.705Z,52.64
2018-09-18T02:46:15.388Z,53.73
2018-09-18T02:49:19.208Z,53.41
2018-09-18T02:52:22.990Z,53.93
2018-09-18T02:55:26.585Z,54.74
2018-09-18T02:58:30.169Z,55.05
2018-09-18T03:01:33.872Z,55.29
2018-09-18T03:04:37.517Z,55.34
2018-09-18T03:07:41.259Z,55.34
2018-09-18T03:10:44.874Z,55.31
2018-09-18T03:13:48.656Z,55.26
2018-09-18T03:16:52.301Z,54.94
2018-09-18T03:19:55.924Z,55.91
2018-09-18T03:22:59.548Z,54.67
2018-09-18T03:26:03.267Z,54.49
2018-09-18T03:29:06.855Z,54.52
2018-09-18T03:32:10.441Z,55.15
2018-09-18T03:35:13.984Z,54.45
2018-09-18T03:38:17.726Z,55.88
2018-09-18T03:41:21.329Z,55.33
2018-09-18T03:44:25.101Z,55.13
2018-09-18T03:47:28.731Z,55.70
2018-09-18T03:50:32.409Z,56.85
2018-09-18T03:53:35.991Z,56.82
2018-09-18T03:56:39.881Z,57.53
2018-09-18T03:59:43.659Z,57.56
2018-09-18T04:02:47.316Z,56.73
2018-09-18T04:05:51.025Z,57.19
2018-09-18T04:08:54.707Z,58.19
2018-09-18T04:11:58.290Z,57.37
2018-09-18T04:15:01.984Z,57.90
2018-09-18T04:18:05.641Z,57.67
2018-09-18T04:21:09.775Z,58.88
2018-09-18T04:24:13.662Z,59.88
2018-09-18T04:27:17.226Z,59.53
2018-09-18T04:30:20.860Z,60.76
2018-09-18T04:33:24.439Z,60.28
2018-09-18T04:36:28.065Z,60.50
2018-09-18T04:39:31.716Z,59.84
2018-09-18T04:42:35.480Z,60.02
2018-09-18T04:45:39.156Z,59.44
2018-09-18T04:48:42.741Z,58.99
2018-09-18T04:51:46.515Z,59.84
2018-09-18T04:54:50.276Z,60.36
2018-09-18T04:57:53.871Z,60.99
2018-09-18T05:00:57.582Z,59.17
2018-09-18T05:04:01.236Z,61.74
2018-09-18T05:07:04.870Z,61.55
2018-09-18T05:10:08.606Z,61.06
2018-09-18T05:13:12.227Z,60.33
2018-09-18T05:16:15.975Z,58.80
2018-09-18T05:19:19.680Z,58.67
2018-09-18T05:22:23.344Z,57.88
2018-09-18T05:25:27.073Z,56.21
2018-09-18T05:28:30.706Z,57.14
2018-09-18T05:31:34.450Z,57.79
2018-09-18T05:34:38.141Z,56.84
2018-09-18T05:37:41.775Z,55.64
2018-09-18T05:40:45.416Z,53.41
2018-09-18T05:43:49.076Z,48.62
2018-09-18T05:46:52.790Z,46.53
2018-09-18T05:49:56.509Z,45.05
2018-09-18T05:53:00.221Z,43.65
2018-09-18T05:56:03.929Z,44.53
2018-09-18T05:59:07.745Z,44.76
2018-09-18T06:02:11.384Z,46.27
2018-09-18T06:05:15.100Z,43.30
2018-09-18T06:08:18.815Z,42.02
2018-09-18T06:11:22.505Z,43.23
2018-09-18T06:14:26.221Z,43.20
2018-09-18T06:17:29.923Z,42.64
2018-09-18T06:20:33.704Z,42.60
2018-09-18T06:23:37.275Z,44.86
2018-09-18T06:26:41.025Z,43.34
2018-09-18T06:29:44.694Z,43.98
2018-09-18T06:32:48.491Z,43.85
2018-09-18T06:35:52.580Z,44.46
2018-09-18T06:38:56.240Z,45.11
2018-09-18T06:41:59.863Z,45.04
2018-09-18T06:45:03.518Z,45.28
2018-09-18T06:48:07.423Z,45.55
2018-09-18T06:51:10.944Z,45.13
2018-09-18T06:54:14.594Z,45.62
2018-09-18T06:57:18.298Z,45.28
2018-09-18T07:00:21.997Z,45.31
2018-09-18T07:03:25.675Z,45.95
2018-09-18T07:06:29.399Z,45.39
2018-09-18T07:09:33.036Z,46.16
2018-09-18T07:12:36.601Z,44.98
2018-09-18T07:15:40.509Z,47.13
2018-09-18T07:18:44.149Z,45.62
2018-09-18T07:21:48.052Z,45.35
2018-09-18T07:24:51.744Z,45.31
2018-09-18T07:27:55.360Z,45.48
2018-09-18T07:30:59.059Z,46.72
2018-09-18T07:34:02.794Z,45.23
2018-09-18T07:37:06.589Z,46.06
2018-09-18T07:40:10.173Z,44.96
2018-09-18T07:43:13.820Z,45.04
2018-09-18T07:46:17.484Z,44.53
2018-09-18T07:49:21.139Z,45.53
2018-09-18T07:52:24.957Z,44.58
2018-09-18T07:55:28.587Z,44.31
2018-09-18T07:58:32.351Z,45.72
2018-09-18T08:01:35.981Z,44.43
2018-09-18T08:04:39.601Z,44.24
2018-09-18T08:07:43.184Z,44.00
2018-09-18T08:10:46.867Z,43.87
2018-09-18T08:13:50.621Z,44.83
2018-09-18T08:16:54.281Z,44.69
2018-09-18T08:19:58.141Z,44.37
2018-09-18T08:23:02.172Z,43.78
2018-09-18T08:26:06.088Z,44.19
2018-09-18T08:29:11.526Z,43.67
2018-09-18T08:32:15.864Z,43.56
2018-09-18T08:35:19.534Z,43.53
2018-09-18T08:38:23.400Z,43.53
2018-09-18T08:41:27.037Z,43.88
2018-09-18T08:44:30.777Z,43.05
2018-09-18T08:47:34.496Z,43.74
2018-09-18T08:50:38.392Z,43.40
2018-09-18T08:53:42.238Z,43.76
2018-09-18T08:56:45.912Z,43.36
2018-09-18T08:59:49.575Z,43.01
2018-09-18T09:02:53.554Z,42.58
2018-09-18T09:05:57.226Z,42.62
2018-09-18T09:09:01.007Z,42.27
2018-09-18T09:12:04.673Z,42.18
2018-09-18T09:15:08.519Z,42.29
2018-09-18T09:18:12.188Z,41.95
2018-09-18T09:21:15.944Z,42.31
2018-09-18T09:24:19.654Z,42.04
2018-09-18T09:27:23.429Z,41.62
2018-09-18T09:30:27.160Z,41.70
2018-09-18T09:33:31.015Z,41.46
2018-09-18T09:36:34.665Z,41.00
2018-09-18T09:39:38.371Z,41.02
2018-09-18T09:42:42.111Z,39.93
2018-09-18T09:45:45.727Z,42.60
2018-09-18T09:48:49.474Z,40.45
2018-09-18T09:51:53.102Z,40.18
2018-09-18T09:54:56.761Z,40.09
2018-09-18T09:58:00.405Z,39.73
2018-09-18T10:01:09.309Z,39.44
2018-09-18T10:04:12.960Z,38.23
2018-09-18T10:07:16.767Z,38.69
2018-09-18T10:10:20.324Z,39.09
2018-09-18T10:13:24.189Z,38.51
2018-09-18T10:16:27.926Z,39.15
2018-09-18T10:19:31.540Z,38.16
2018-09-18T10:22:35.379Z,38.16
2018-09-18T10:25:39.034Z,38.06
2018-09-18T10:28:42.690Z,37.83
2018-09-18T10:31:46.299Z,37.82
2018-09-18T10:34:49.977Z,37.37
2018-09-18T10:37:53.684Z,37.16
2018-09-18T10:40:57.539Z,36.45
2018-09-18T10:44:01.132Z,36.49
2018-09-18T10:47:04.821Z,35.55
2018-09-18T10:50:08.485Z,36.61
2018-09-18T10:53:12.129Z,36.60
2018-09-18T10:56:15.814Z,36.26
2018-09-18T10:59:19.639Z,36.26
2018-09-18T11:02:23.371Z,36.66
2018-09-18T11:05:26.942Z,35.93
2018-09-18T11:08:30.623Z,35.61
2018-09-18T11:11:34.172Z,35.56
2018-09-18T11:14:38.547Z,36.31
2018-09-18T11:17:42.147Z,35.71
2018-09-18T11:20:45.828Z,35.90
2018-09-18T11:23:49.430Z,34.66
2018-09-18T11:26:53.050Z,34.45
2018-09-18T11:29:56.646Z,34.94
2018-09-18T11:33:00.401Z,33.96
2018-09-18T11:36:04.077Z,34.07
2018-09-18T11:39:10.441Z,33.72
2018-09-18T11:42:14.351Z,33.32
2018-09-18T11:45:17.941Z,33.67
2018-09-18T11:48:21.575Z,33.19
2018-09-18T11:51:25.360Z,33.47
2018-09-18T11:54:29.004Z,33.11
2018-09-18T11:57:32.670Z,33.49
2018-09-18T12:00:36.539Z,33.30
2018-09-18T12:03:40.512Z,32.90
2018-09-18T12:06:44.471Z,32.49
2018-09-18T12:09:48.357Z,32.46
2018-09-18T12:12:51.977Z,32.58
2018-09-18T12:15:55.790Z,31.78
2018-09-18T12:18:59.525Z,31.43
2018-09-18T12:22:03.329Z,31.78
2018-09-18T12:25:07.038Z,31.12
2018-09-18T12:28:10.826Z,31.14
2018-09-18T12:31:14.500Z,31.07
2018-09-18T12:34:19.135Z,30.27
2018-09-18T12:37:22.850Z,30.49
2018-09-18T12:40:26.485Z,29.43
2018-09-18T12:43:30.275Z,30.13
2018-09-18T12:46:34.899Z,29.47
2018-09-18T12:49:39.869Z,29.40
2018-09-18T12:52:43.479Z,29.95
2018-09-18T12:55:47.165Z,29.86
2018-09-18T12:58:51.021Z,30.50
2018-09-18T13:01:54.657Z,30.33
2018-09-18T13:04:58.411Z,29.79
2018-09-18T13:08:02.166Z,29.97
2018-09-18T13:11:05.912Z,30.08
2018-09-18T13:14:10.210Z,30.72
2018-09-18T13:17:13.827Z,31.13
2018-09-18T13:20:17.554Z,31.62
2018-09-18T13:23:21.491Z,32.67
2018-09-18T13:26:25.199Z,32.91
2018-09-18T13:29:28.871Z,33.55
2018-09-18T13:32:32.579Z,34.17
2018-09-18T13:35:36.326Z,34.08
2018-09-18T13:38:40.127Z,34.44
2018-09-18T13:41:44.034Z,33.38
2018-09-18T13:44:47.770Z,35.42
2018-09-18T13:47:51.692Z,33.28
2018-09-18T13:50:55.414Z,32.46
2018-09-18T13:53:59.116Z,31.33
2018-09-18T13:57:02.795Z,30.94
2018-09-18T14:00:06.804Z,31.94
2018-09-18T14:03:10.603Z,32.08
2018-09-18T14:06:14.259Z,30.91
2018-09-18T14:09:17.924Z,31.01
2018-09-18T14:12:21.697Z,31.38
2018-09-18T14:15:25.394Z,30.88
2018-09-18T14:18:29.165Z,30.75
2018-09-18T14:21:33.737Z,30.84
2018-09-18T14:24:37.406Z,30.98
2018-09-18T14:27:41.282Z,30.92
2018-09-18T14:30:45.141Z,31.94
2018-09-18T14:33:48.911Z,30.36
2018-09-18T14:36:52.659Z,30.30
2018-09-18T14:39:56.564Z,30.14
2018-09-18T14:43:00.235Z,30.33
2018-09-18T14:46:03.985Z,30.59
2018-09-18T14:49:07.685Z,30.61
2018-09-18T14:52:11.674Z,30.08
2018-09-18T14:55:15.343Z,29.40
2018-09-18T14:58:21.470Z,29.69
2018-09-18T15:01:25.206Z,29.34
2018-09-18T15:04:28.963Z,28.61
2018-09-18T15:07:34.506Z,28.92
2018-09-18T15:10:39.071Z,27.87
2018-09-18T15:13:42.822Z,27.95
2018-09-18T15:16:46.659Z,27.50
2018-09-18T15:19:50.357Z,27.67
2018-09-18T15:22:54.285Z,28.26
2018-09-18T15:25:58.170Z,27.80
2018-09-18T15:29:02.015Z,27.85
2018-09-18T15:32:07.011Z,29.27
2018-09-18T15:35:10.734Z,28.58
2018-09-18T15:38:14.632Z,29.05
2018-09-18T15:41:18.399Z,28.82
2018-09-18T15:44:22.101Z,29.59
2018-09-18T15:47:25.872Z,29.55
2018-09-18T15:50:29.606Z,29.15
2018-09-18T15:53:33.352Z,30.08
2018-09-18T15:56:37.366Z,30.53
2018-09-18T15:59:41.147Z,31.08
2018-09-18T16:02:44.931Z,30.33
2018-09-18T16:05:48.928Z,30.89
2018-09-18T16:08:52.628Z,30.91
2018-09-18T16:11:56.276Z,31.27
2018-09-18T16:15:00.373Z,32.04
2018-09-18T16:18:04.236Z,33.20
2018-09-18T16:21:08.062Z,32.74
2018-09-18T16:24:11.760Z,33.13
2018-09-18T16:27:15.601Z,34.49
2018-09-18T16:30:19.278Z,34.13
2018-09-18T16:33:23.350Z,33.84
2018-09-18T16:36:27.055Z,35.09
2018-09-18T16:39:30.758Z,35.91
2018-09-18T16:42:34.638Z,35.15
2018-09-18T16:45:38.535Z,35.14
2018-09-18T16:48:42.347Z,34.41
2018-09-18T16:51:46.220Z,35.36
2018-09-18T16:54:49.983Z,35.23
2018-09-18T16:57:53.639Z,34.96
2018-09-18T17:00:57.424Z,34.90
2018-09-18T17:04:01.359Z,34.97
2018-09-18T17:07:05.263Z,36.07
2018-09-18T17:10:09.135Z,35.55
2018-09-18T17:13:13.331Z,35.26
2018-09-18T17:16:17.089Z,35.43
2018-09-18T17:19:20.799Z,35.76
2018-09-18T17:22:24.937Z,36.96
2018-09-18T17:25:28.813Z,35.68
2018-09-18T17:28:32.611Z,37.29
2018-09-18T17:31:36.455Z,36.74
2018-09-18T17:34:40.227Z,36.92
2018-09-18T17:37:44.155Z,37.03
2018-09-18T17:40:48.377Z,37.18
2018-09-18T17:43:52.734Z,37.25
2018-09-18T17:46:56.601Z,37.50
2018-09-18T17:50:00.318Z,39.02
2018-09-18T17:53:04.168Z,39.25
2018-09-18T17:56:07.910Z,38.99
2018-09-18T17:59:12.411Z,38.03
2018-09-18T18:02:16.316Z,38.66
2018-09-18T18:05:20.641Z,38.78
2018-09-18T18:08:25.074Z,38.80
2018-09-18T18:11:29.105Z,38.70
2018-09-18T18:14:32.823Z,39.55
2018-09-18T18:17:36.633Z,40.38
2018-09-18T18:20:40.323Z,39.92
2018-09-18T18:23:43.965Z,39.73
2018-09-18T18:26:47.769Z,39.58
2018-09-18T18:29:51.441Z,40.02
2018-09-18T18:32:55.144Z,39.51
2018-09-18T18:35:58.983Z,39.72
2018-09-18T18:39:02.709Z,39.83
2018-09-18T18:42:06.462Z,40.12
2018-09-18T18:45:10.272Z,40.40
2018-09-18T18:48:14.547Z,39.77
2018-09-18T18:51:18.428Z,40.11
2018-09-18T18:54:24.237Z,40.23
2018-09-18T18:57:28.056Z,40.15
2018-09-18T19:00:32.056Z,40.34
2018-09-18T19:03:35.710Z,40.79
2018-09-18T19:06:39.476Z,40.54
2018-09-18T19:09:43.164Z,40.76
2018-09-18T19:12:47.118Z,40.78
2018-09-18T19:15:50.956Z,40.31
2018-09-18T19:18:54.849Z,40.08
2018-09-18T19:21:58.563Z,39.79
2018-09-18T19:25:02.460Z,39.99
2018-09-18T19:28:06.300Z,40.28
2018-09-18T19:31:10.139Z,40.56
2018-09-18T19:34:14.018Z,40.92
2018-09-18T19:37:17.890Z,41.55
2018-09-18T19:40:21.742Z,41.95
2018-09-18T19:43:25.477Z,42.70
2018-09-18T19:46:29.207Z,43.46
2018-09-18T19:49:33.150Z,44.09
2018-09-18T19:52:36.858Z,44.52
2018-09-18T19:55:40.556Z,44.91
2018-09-18T19:58:44.408Z,45.42
2018-09-18T20:01:48.207Z,45.64
2018-09-18T20:04:52.033Z,46.20
2018-09-18T20:07:55.905Z,46.22
2018-09-18T20:10:59.736Z,46.56
2018-09-18T20:14:03.557Z,46.70
2018-09-18T20:17:07.355Z,46.72
2018-09-18T20:20:11.290Z,46.81
2018-09-18T20:23:15.079Z,46.91
2018-09-18T20:26:18.876Z,47.24
2018-09-18T20:29:22.662Z,47.87
2018-09-18T20:32:26.318Z,48.03
2018-09-18T20:35:30.057Z,48.36
2018-09-18T20:38:33.765Z,48.87
2018-09-18T20:41:37.696Z,49.22
2018-09-18T20:44:41.446Z,49.58
2018-09-18T20:47:45.210Z,49.80
2018-09-18T20:50:48.974Z,50.46
2018-09-18T20:53:52.832Z,51.07
2018-09-18T20:56:56.572Z,51.71
2018-09-18T21:00:00.306Z,52.28
2018-09-18T21:03:04.041Z,52.35
2018-09-18T21:06:07.954Z,52.83
2018-09-18T21:09:11.876Z,53.51
2018-09-18T21:12:15.637Z,53.37
2018-09-18T21:15:19.438Z,54.10
2018-09-18T21:18:23.260Z,54.67
2018-09-18T21:21:27.100Z,55.02
2018-09-18T21:24:31.036Z,55.76
2018-09-18T21:27:34.668Z,55.87
2018-09-18T21:30:38.345Z,56.45
2018-09-18T21:33:42.116Z,57.33
2018-09-18T21:36:45.791Z,57.34
2018-09-18T21:39:49.495Z,57.64
2018-09-18T21:42:53.176Z,57.52
2018-09-18T21:45:56.892Z,57.67
2018-09-18T21:49:00.758Z,58.33
2018-09-18T21:52:04.459Z,57.86
2018-09-18T21:55:08.225Z,58.61
2018-09-18T21:58:11.806Z,59.40
2018-09-18T22:01:15.667Z,60.37
2018-09-18T22:04:19.456Z,62.12
2018-09-18T22:07:23.022Z,62.68
2018-09-18T22:10:26.854Z,62.55
2018-09-18T22:13:30.508Z,63.19
2018-09-18T22:16:34.180Z,63.07
2018-09-18T22:19:37.840Z,63.13
2018-09-18T22:22:41.610Z,63.07
2018-09-18T22:25:45.321Z,64.03
2018-09-18T22:28:48.943Z,63.65
2018-09-18T22:31:52.622Z,64.97
2018-09-18T22:34:56.274Z,65.43
2018-09-18T22:37:59.985Z,66.14
2018-09-18T22:41:03.673Z,66.90
2018-09-18T22:44:07.639Z,67.73
2018-09-18T22:47:11.362Z,68.75
2018-09-18T22:50:14.962Z,68.60
2018-09-18T22:53:18.668Z,69.21
2018-09-18T22:56:22.379Z,69.69
2018-09-18T22:59:25.987Z,70.62
2018-09-18T23:02:29.584Z,70.53
2018-09-18T23:05:33.222Z,69.73
2018-09-18T23:08:36.849Z,70.38
2018-09-18T23:11:40.443Z,70.84
2018-09-18T23:14:44.056Z,70.95
2018-09-18T23:17:47.657Z,71.33
2018-09-18T23:20:51.260Z,71.22
2018-09-18T23:23:54.989Z,71.66
2018-09-18T23:26:58.605Z,71.92
2018-09-18T23:30:02.299Z,71.28
2018-09-18T23:33:06.227Z,71.54
2018-09-18T23:36:09.836Z,71.64
2018-09-18T23:39:13.464Z,72.17
2018-09-18T23:42:17.157Z,72.42
2018-09-18T23:45:20.690Z,71.72
2018-09-18T23:48:24.398Z,72.05
2018-09-18T23:51:28.364Z,72.26
2018-09-18T23:54:31.930Z,72.24
2018-09-18T23:57:36.222Z,72.24
